sensor_id;sensor_type;location;lat;lon;timestamp;pressure;altitude;pressure_sealevel;temperature;humidity
58473;BME280;44775;51.564;5.460;2024-02-04T00:00:27;102087.44;;;9.73;100.00
58473;BME280;44775;51.564;5.460;2024-02-04T00:02:52;102091.94;;;9.72;100.00
58473;BME280;44775;51.564;5.460;2024-02-04T00:05:18;102101.88;;;9.70;100.00
58473;BME280;44775;51.564;5.460;2024-02-04T00:07:43;102097.97;;;9.74;100.00
58473;BME280;44775;51.564;5.460;2024-02-04T00:10:08;102096.41;;;9.72;100.00
58473;BME280;44775;51.564;5.460;2024-02-04T00:12:34;102091.84;;;9.83;100.00
58473;BME280;44775;51.564;5.460;2024-02-04T00:14:59;102081.19;;;9.93;100.00
58473;BME280;44775;51.564;5.460;2024-02-04T00:17:24;102088.50;;;9.91;100.00
58473;BME280;44775;51.564;5.460;2024-02-04T00:19:54;102089.59;;;9.88;100.00
58473;BME280;44775;51.564;5.460;2024-02-04T00:22:20;102098.09;;;10.03;100.00
58473;BME280;44775;51.564;5.460;2024-02-04T00:24:45;102090.22;;;10.02;100.00
58473;BME280;44775;51.564;5.460;2024-02-04T00:27:10;102085.88;;;10.01;100.00
58473;BME280;44775;51.564;5.460;2024-02-04T00:29:35;102093.47;;;10.05;100.00
58473;BME280;44775;51.564;5.460;2024-02-04T00:32:00;102094.22;;;10.17;100.00
58473;BME280;44775;51.564;5.460;2024-02-04T00:34:26;102095.44;;;10.03;100.00
58473;BME280;44775;51.564;5.460;2024-02-04T00:36:51;102094.78;;;10.21;100.00
58473;BME280;44775;51.564;5.460;2024-02-04T00:39:16;102093.94;;;10.20;100.00
58473;BME280;44775;51.564;5.460;2024-02-04T00:41:41;102086.91;;;10.19;100.00
58473;BME280;44775;51.564;5.460;2024-02-04T00:44:06;102101.94;;;10.10;100.00
58473;BME280;44775;51.564;5.460;2024-02-04T00:46:32;102098.09;;;10.03;100.00
58473;BME280;44775;51.564;5.460;2024-02-04T00:48:57;102092.25;;;10.09;100.00
58473;BME280;44775;51.564;5.460;2024-02-04T00:51:22;102099.84;;;10.14;100.00
58473;BME280;44775;51.564;5.460;2024-02-04T00:53:47;102104.72;;;10.09;100.00
58473;BME280;44775;51.564;5.460;2024-02-04T00:56:12;102104.44;;;10.12;100.00
58473;BME280;44775;51.564;5.460;2024-02-04T00:58:38;102111.34;;;10.14;100.00
58473;BME280;44775;51.564;5.460;2024-02-04T01:01:03;102109.69;;;10.13;100.00
58473;BME280;44775;51.564;5.460;2024-02-04T01:03:30;102100.72;;;10.24;100.00
58473;BME280;44775;51.564;5.460;2024-02-04T01:05:56;102101.03;;;10.31;100.00
58473;BME280;44775;51.564;5.460;2024-02-04T01:08:21;102102.03;;;10.30;100.00
58473;BME280;44775;51.564;5.460;2024-02-04T01:10:46;102107.66;;;10.27;100.00
58473;BME280;44775;51.564;5.460;2024-02-04T01:13:12;102091.97;;;10.22;100.00
58473;BME280;44775;51.564;5.460;2024-02-04T01:15:37;102090.78;;;10.26;100.00
58473;BME280;44775;51.564;5.460;2024-02-04T01:18:02;102086.28;;;10.27;100.00
58473;BME280;44775;51.564;5.460;2024-02-04T01:20:27;102084.28;;;10.29;100.00
58473;BME280;44775;51.564;5.460;2024-02-04T01:22:53;102088.81;;;10.38;100.00
58473;BME280;44775;51.564;5.460;2024-02-04T01:25:18;102090.22;;;10.32;100.00
58473;BME280;44775;51.564;5.460;2024-02-04T01:27:43;102090.09;;;10.34;100.00
58473;BME280;44775;51.564;5.460;2024-02-04T01:30:08;102094.06;;;10.39;100.00
58473;BME280;44775;51.564;5.460;2024-02-04T01:32:34;102089.97;;;10.45;100.00
58473;BME280;44775;51.564;5.460;2024-02-04T01:34:59;102084.75;;;10.34;100.00
58473;BME280;44775;51.564;5.460;2024-02-04T01:37:24;102083.06;;;10.43;100.00
58473;BME280;44775;51.564;5.460;2024-02-04T01:39:49;102077.59;;;10.44;100.00
58473;BME280;44775;51.564;5.460;2024-02-04T01:42:15;102080.28;;;10.44;100.00
58473;BME280;44775;51.564;5.460;2024-02-04T01:44:40;102080.25;;;10.34;100.00
58473;BME280;44775;51.564;5.460;2024-02-04T01:47:05;102079.53;;;10.32;100.00
58473;BME280;44775;51.564;5.460;2024-02-04T01:49:30;102083.59;;;10.27;100.00
58473;BME280;44775;51.564;5.460;2024-02-04T01:51:56;102082.38;;;10.40;100.00
58473;BME280;44775;51.564;5.460;2024-02-04T01:54:22;102087.22;;;10.26;100.00
58473;BME280;44775;51.564;5.460;2024-02-04T01:56:52;102081.63;;;10.29;100.00
58473;BME280;44775;51.564;5.460;2024-02-04T01:59:18;102082.00;;;10.24;100.00
58473;BME280;44775;51.564;5.460;2024-02-04T02:01:43;102086.06;;;10.18;100.00
58473;BME280;44775;51.564;5.460;2024-02-04T02:04:09;102090.94;;;10.34;100.00
58473;BME280;44775;51.564;5.460;2024-02-04T02:06:34;102095.97;;;10.28;100.00
58473;BME280;44775;51.564;5.460;2024-02-04T02:09:06;102090.84;;;10.15;100.00
58473;BME280;44775;51.564;5.460;2024-02-04T02:11:42;102097.19;;;10.24;100.00
58473;BME280;44775;51.564;5.460;2024-02-04T02:14:23;102093.03;;;10.31;100.00
58473;BME280;44775;51.564;5.460;2024-02-04T02:16:50;102092.13;;;10.21;100.00
58473;BME280;44775;51.564;5.460;2024-02-04T02:26:55;102083.63;;;10.36;100.00
58473;BME280;44775;51.564;5.460;2024-02-04T02:29:23;102088.09;;;10.36;100.00
58473;BME280;44775;51.564;5.460;2024-02-04T02:31:48;102085.88;;;10.41;100.00
58473;BME280;44775;51.564;5.460;2024-02-04T02:34:14;102081.66;;;10.38;100.00
58473;BME280;44775;51.564;5.460;2024-02-04T02:36:44;102076.28;;;10.29;100.00
58473;BME280;44775;51.564;5.460;2024-02-04T02:39:21;102078.97;;;10.38;100.00
58473;BME280;44775;51.564;5.460;2024-02-04T02:41:49;102081.34;;;10.32;100.00
58473;BME280;44775;51.564;5.460;2024-02-04T02:44:16;102081.22;;;10.33;100.00
58473;BME280;44775;51.564;5.460;2024-02-04T02:46:41;102081.91;;;10.35;100.00
58473;BME280;44775;51.564;5.460;2024-02-04T02:49:06;102075.91;;;10.43;100.00
58473;BME280;44775;51.564;5.460;2024-02-04T02:51:32;102076.19;;;10.40;100.00
58473;BME280;44775;51.564;5.460;2024-02-04T02:53:57;102076.53;;;10.26;100.00
58473;BME280;44775;51.564;5.460;2024-02-04T02:56:22;102075.78;;;10.54;100.00
58473;BME280;44775;51.564;5.460;2024-02-04T02:58:47;102071.53;;;10.42;100.00
58473;BME280;44775;51.564;5.460;2024-02-04T03:01:13;102071.66;;;10.31;100.00
58473;BME280;44775;51.564;5.460;2024-02-04T03:03:38;102078.25;;;10.27;100.00
58473;BME280;44775;51.564;5.460;2024-02-04T03:06:03;102073.16;;;10.24;100.00
58473;BME280;44775;51.564;5.460;2024-02-04T03:08:28;102069.97;;;10.30;100.00
58473;BME280;44775;51.564;5.460;2024-02-04T03:10:53;102075.81;;;10.24;100.00
58473;BME280;44775;51.564;5.460;2024-02-04T03:13:19;102074.59;;;10.28;100.00
58473;BME280;44775;51.564;5.460;2024-02-04T03:15:44;102069.28;;;10.37;100.00
58473;BME280;44775;51.564;5.460;2024-02-04T03:18:09;102062.16;;;10.17;100.00
58473;BME280;44775;51.564;5.460;2024-02-04T03:20:34;102074.38;;;10.10;100.00
58473;BME280;44775;51.564;5.460;2024-02-04T03:22:59;102084.03;;;10.01;100.00
58473;BME280;44775;51.564;5.460;2024-02-04T03:25:25;102082.53;;;10.18;100.00
58473;BME280;44775;51.564;5.460;2024-02-04T03:27:51;102067.31;;;10.09;100.00
58473;BME280;44775;51.564;5.460;2024-02-04T03:30:17;102062.41;;;10.04;100.00
58473;BME280;44775;51.564;5.460;2024-02-04T03:32:43;102066.09;;;10.13;100.00
58473;BME280;44775;51.564;5.460;2024-02-04T03:35:08;102066.78;;;10.15;100.00
58473;BME280;44775;51.564;5.460;2024-02-04T03:37:33;102068.84;;;10.32;100.00
58473;BME280;44775;51.564;5.460;2024-02-04T03:39:58;102070.16;;;10.07;100.00
58473;BME280;44775;51.564;5.460;2024-02-04T03:42:23;102066.97;;;10.23;100.00
58473;BME280;44775;51.564;5.460;2024-02-04T03:44:49;102066.34;;;10.00;100.00
58473;BME280;44775;51.564;5.460;2024-02-04T03:47:14;102060.44;;;10.06;100.00
58473;BME280;44775;51.564;5.460;2024-02-04T03:49:39;102068.63;;;10.14;100.00
58473;BME280;44775;51.564;5.460;2024-02-04T03:52:05;102070.91;;;9.88;100.00
58473;BME280;44775;51.564;5.460;2024-02-04T03:54:30;102065.34;;;10.01;100.00
58473;BME280;44775;51.564;5.460;2024-02-04T03:56:55;102063.81;;;10.08;100.00
58473;BME280;44775;51.564;5.460;2024-02-04T03:59:20;102056.19;;;9.94;100.00
58473;BME280;44775;51.564;5.460;2024-02-04T04:01:49;102054.94;;;9.98;100.00
58473;BME280;44775;51.564;5.460;2024-02-04T04:04:14;102056.19;;;9.94;100.00
58473;BME280;44775;51.564;5.460;2024-02-04T04:06:40;102068.59;;;10.05;100.00
58473;BME280;44775;51.564;5.460;2024-02-04T04:09:05;102068.81;;;9.92;100.00
58473;BME280;44775;51.564;5.460;2024-02-04T04:11:31;102069.69;;;10.02;100.00
58473;BME280;44775;51.564;5.460;2024-02-04T04:13:56;102069.41;;;10.05;100.00
58473;BME280;44775;51.564;5.460;2024-02-04T04:16:21;102075.59;;;9.96;100.00
58473;BME280;44775;51.564;5.460;2024-02-04T04:18:47;102077.28;;;9.97;100.00
58473;BME280;44775;51.564;5.460;2024-02-04T04:21:12;102085.44;;;10.05;100.00
58473;BME280;44775;51.564;5.460;2024-02-04T04:23:37;102070.25;;;9.96;100.00
58473;BME280;44775;51.564;5.460;2024-02-04T04:26:02;102074.59;;;9.97;100.00
58473;BME280;44775;51.564;5.460;2024-02-04T04:28:28;102065.44;;;9.90;100.00
58473;BME280;44775;51.564;5.460;2024-02-04T04:30:53;102053.50;;;9.94;100.00
58473;BME280;44775;51.564;5.460;2024-02-04T04:33:18;102058.19;;;10.11;100.00
58473;BME280;44775;51.564;5.460;2024-02-04T04:35:44;102052.56;;;10.05;100.00
58473;BME280;44775;51.564;5.460;2024-02-04T04:38:09;102038.81;;;10.09;100.00
58473;BME280;44775;51.564;5.460;2024-02-04T04:40:34;102035.81;;;9.93;100.00
58473;BME280;44775;51.564;5.460;2024-02-04T04:42:59;102015.72;;;9.99;100.00
58473;BME280;44775;51.564;5.460;2024-02-04T04:45:25;102020.47;;;9.95;100.00
58473;BME280;44775;51.564;5.460;2024-02-04T04:47:50;102021.75;;;9.91;100.00
58473;BME280;44775;51.564;5.460;2024-02-04T04:50:15;102022.88;;;9.98;100.00
58473;BME280;44775;51.564;5.460;2024-02-04T04:52:40;102015.72;;;9.89;100.00
58473;BME280;44775;51.564;5.460;2024-02-04T04:55:05;102019.59;;;9.85;100.00
58473;BME280;44775;51.564;5.460;2024-02-04T04:57:31;102026.25;;;9.90;100.00
58473;BME280;44775;51.564;5.460;2024-02-04T04:59:56;102027.47;;;9.77;100.00
58473;BME280;44775;51.564;5.460;2024-02-04T05:02:23;102030.84;;;9.88;100.00
58473;BME280;44775;51.564;5.460;2024-02-04T05:04:49;102028.59;;;9.84;100.00
58473;BME280;44775;51.564;5.460;2024-02-04T05:07:14;102022.31;;;9.94;100.00
58473;BME280;44775;51.564;5.460;2024-02-04T05:09:39;102012.19;;;9.98;100.00
58473;BME280;44775;51.564;5.460;2024-02-04T05:12:05;102012.59;;;9.84;100.00
58473;BME280;44775;51.564;5.460;2024-02-04T05:14:31;102017.50;;;9.79;100.00
58473;BME280;44775;51.564;5.460;2024-02-04T05:16:56;102019.44;;;9.77;100.00
58473;BME280;44775;51.564;5.460;2024-02-04T05:19:21;102017.34;;;9.80;100.00
58473;BME280;44775;51.564;5.460;2024-02-04T05:21:46;102016.34;;;9.81;100.00
58473;BME280;44775;51.564;5.460;2024-02-04T05:24:12;102009.78;;;9.95;100.00
58473;BME280;44775;51.564;5.460;2024-02-04T05:26:37;102012.59;;;9.84;100.00
58473;BME280;44775;51.564;5.460;2024-02-04T05:29:02;102002.53;;;10.07;100.00
58473;BME280;44775;51.564;5.460;2024-02-04T05:31:27;102018.53;;;9.97;100.00
58473;BME280;44775;51.564;5.460;2024-02-04T05:33:52;102024.25;;;9.83;100.00
58473;BME280;44775;51.564;5.460;2024-02-04T05:36:18;102015.44;;;10.02;100.00
58473;BME280;44775;51.564;5.460;2024-02-04T05:38:44;102010.38;;;9.89;100.00
58473;BME280;44775;51.564;5.460;2024-02-04T05:41:10;102004.75;;;10.02;100.00
58473;BME280;44775;51.564;5.460;2024-02-04T05:43:35;102011.78;;;9.93;100.00
58473;BME280;44775;51.564;5.460;2024-02-04T05:46:00;102014.31;;;10.04;100.00
58473;BME280;44775;51.564;5.460;2024-02-04T05:48:25;102014.03;;;9.98;100.00
58473;BME280;44775;51.564;5.460;2024-02-04T05:50:51;102015.13;;;9.95;100.00
58473;BME280;44775;51.564;5.460;2024-02-04T05:53:16;102007.13;;;9.95;100.00
58473;BME280;44775;51.564;5.460;2024-02-04T05:55:41;102005.59;;;10.02;100.00
58473;BME280;44775;51.564;5.460;2024-02-04T05:58:06;102019.09;;;10.01;100.00
58473;BME280;44775;51.564;5.460;2024-02-04T06:00:31;102010.41;;;10.18;100.00
58473;BME280;44775;51.564;5.460;2024-02-04T06:02:57;102012.97;;;10.20;100.00
58473;BME280;44775;51.564;5.460;2024-02-04T06:05:22;102001.75;;;10.26;100.00
58473;BME280;44775;51.564;5.460;2024-02-04T06:07:47;102004.78;;;10.11;100.00
58473;BME280;44775;51.564;5.460;2024-02-04T06:10:13;102012.97;;;10.20;100.00
58473;BME280;44775;51.564;5.460;2024-02-04T06:12:38;102009.00;;;10.14;100.00
58473;BME280;44775;51.564;5.460;2024-02-04T06:15:06;102009.84;;;10.14;100.00
58473;BME280;44775;51.564;5.460;2024-02-04T06:17:31;102001.69;;;10.06;100.00
58473;BME280;44775;51.564;5.460;2024-02-04T06:19:56;101998.31;;;10.04;100.00
58473;BME280;44775;51.564;5.460;2024-02-04T06:22:22;101989.59;;;10.12;100.00
58473;BME280;44775;51.564;5.460;2024-02-04T06:24:47;101984.53;;;9.99;100.00
58473;BME280;44775;51.564;5.460;2024-02-04T06:27:12;101991.97;;;9.96;100.00
58473;BME280;44775;51.564;5.460;2024-02-04T06:29:37;101995.22;;;9.99;100.00
58473;BME280;44775;51.564;5.460;2024-02-04T06:32:04;101985.94;;;10.03;100.00
58473;BME280;44775;51.564;5.460;2024-02-04T06:34:29;101982.00;;;10.07;100.00
58473;BME280;44775;51.564;5.460;2024-02-04T06:36:55;101982.88;;;10.17;100.00
58473;BME280;44775;51.564;5.460;2024-02-04T06:39:20;101986.22;;;10.00;100.00
58473;BME280;44775;51.564;5.460;2024-02-04T06:41:45;101984.97;;;10.04;100.00
58473;BME280;44775;51.564;5.460;2024-02-04T06:44:11;101983.28;;;10.03;100.00
58473;BME280;44775;51.564;5.460;2024-02-04T06:46:36;101977.91;;;9.93;100.00
58473;BME280;44775;51.564;5.460;2024-02-04T06:49:01;101986.22;;;10.00;100.00
58473;BME280;44775;51.564;5.460;2024-02-04T06:51:26;101971.59;;;10.04;100.00
58473;BME280;44775;51.564;5.460;2024-02-04T06:53:52;101985.91;;;9.93;100.00
58473;BME280;44775;51.564;5.460;2024-02-04T06:56:17;101975.81;;;9.97;100.00
58473;BME280;44775;51.564;5.460;2024-02-04T06:58:42;101978.31;;;9.89;100.00
58473;BME280;44775;51.564;5.460;2024-02-04T07:01:08;101985.91;;;9.93;100.00
58473;BME280;44775;51.564;5.460;2024-02-04T07:03:33;101985.75;;;9.95;100.00
58473;BME280;44775;51.564;5.460;2024-02-04T07:05:59;101998.81;;;9.88;100.00
58473;BME280;44775;51.564;5.460;2024-02-04T07:08:24;101987.75;;;9.93;100.00
58473;BME280;44775;51.564;5.460;2024-02-04T07:10:50;101992.25;;;10.02;100.00
58473;BME280;44775;51.564;5.460;2024-02-04T07:13:15;101997.44;;;9.94;100.00
58473;BME280;44775;51.564;5.460;2024-02-04T07:15:40;101990.03;;;10.07;100.00
58473;BME280;44775;51.564;5.460;2024-02-04T07:18:06;101990.44;;;10.03;100.00
58473;BME280;44775;51.564;5.460;2024-02-04T07:20:31;102000.09;;;9.94;100.00
58473;BME280;44775;51.564;5.460;2024-02-04T07:22:56;101983.69;;;10.08;100.00
58473;BME280;44775;51.564;5.460;2024-02-04T07:25:21;101985.09;;;10.03;100.00
58473;BME280;44775;51.564;5.460;2024-02-04T07:27:47;101991.16;;;10.14;100.00
58473;BME280;44775;51.564;5.460;2024-02-04T07:30:12;101984.41;;;10.10;100.00
58473;BME280;44775;51.564;5.460;2024-02-04T07:32:37;101983.16;;;10.14;100.00
58473;BME280;44775;51.564;5.460;2024-02-04T07:35:03;101976.13;;;10.13;100.00
58473;BME280;44775;51.564;5.460;2024-02-04T07:37:28;101981.19;;;10.16;100.00
58473;BME280;44775;51.564;5.460;2024-02-04T07:39:53;101975.44;;;10.21;100.00
58473;BME280;44775;51.564;5.460;2024-02-04T07:42:18;101974.72;;;10.09;100.00
58473;BME280;44775;51.564;5.460;2024-02-04T07:44:44;101982.59;;;10.21;100.00
58473;BME280;44775;51.564;5.460;2024-02-04T07:47:09;101973.88;;;10.18;100.00
58473;BME280;44775;51.564;5.460;2024-02-04T07:49:34;101973.88;;;10.18;100.00
58473;BME280;44775;51.564;5.460;2024-02-04T07:51:59;101967.56;;;10.20;100.00
58473;BME280;44775;51.564;5.460;2024-02-04T07:54:25;101975.97;;;10.15;100.00
58473;BME280;44775;51.564;5.460;2024-02-04T07:56:50;101974.13;;;10.15;100.00
58473;BME280;44775;51.564;5.460;2024-02-04T07:59:15;101975.91;;;10.26;100.00
58473;BME280;44775;51.564;5.460;2024-02-04T08:01:40;101995.09;;;10.10;100.00
58473;BME280;44775;51.564;5.460;2024-02-04T08:04:05;101979.19;;;9.99;100.00
58473;BME280;44775;51.564;5.460;2024-02-04T08:06:33;101963.47;;;10.15;100.00
58473;BME280;44775;51.564;5.460;2024-02-04T08:08:59;101985.38;;;10.00;100.00
58473;BME280;44775;51.564;5.460;2024-02-04T08:11:24;101976.09;;;10.04;100.00
58473;BME280;44775;51.564;5.460;2024-02-04T08:13:49;101965.16;;;10.07;100.00
58473;BME280;44775;51.564;5.460;2024-02-04T08:16:15;101963.56;;;9.94;100.00
58473;BME280;44775;51.564;5.460;2024-02-04T08:18:40;101955.16;;;10.09;100.00
58473;BME280;44775;51.564;5.460;2024-02-04T08:21:05;101956.13;;;10.08;100.00
58473;BME280;44775;51.564;5.460;2024-02-04T08:23:31;101951.66;;;10.18;100.00
58473;BME280;44775;51.564;5.460;2024-02-04T08:25:56;101938.72;;;10.13;100.00
58473;BME280;44775;51.564;5.460;2024-02-04T08:28:22;101938.47;;;10.16;100.00
58473;BME280;44775;51.564;5.460;2024-02-04T08:30:50;101945.31;;;10.19;100.00
58473;BME280;44775;51.564;5.460;2024-02-04T08:33:16;101960.38;;;10.10;100.00
58473;BME280;44775;51.564;5.460;2024-02-04T08:35:41;101957.94;;;9.98;100.00
58473;BME280;44775;51.564;5.460;2024-02-04T08:38:06;101953.34;;;10.09;100.00
58473;BME280;44775;51.564;5.460;2024-02-04T08:40:31;101969.09;;;10.12;100.00
58473;BME280;44775;51.564;5.460;2024-02-04T08:42:57;101970.63;;;10.15;100.00
58473;BME280;44775;51.564;5.460;2024-02-04T08:45:22;101968.41;;;10.20;100.00
58473;BME280;44775;51.564;5.460;2024-02-04T08:47:47;101974.69;;;10.00;100.00
58473;BME280;44775;51.564;5.460;2024-02-04T08:50:12;101975.56;;;10.20;100.00
58473;BME280;44775;51.564;5.460;2024-02-04T08:52:38;101979.22;;;10.18;100.00
58473;BME280;44775;51.564;5.460;2024-02-04T08:55:03;101977.88;;;10.34;100.00
58473;BME280;44775;51.564;5.460;2024-02-04T08:57:29;101977.72;;;10.35;100.00
58473;BME280;44775;51.564;5.460;2024-02-04T08:59:54;101990.78;;;10.38;100.00
58473;BME280;44775;51.564;5.460;2024-02-04T09:02:19;101985.47;;;10.58;100.00
58473;BME280;44775;51.564;5.460;2024-02-04T09:04:44;101978.16;;;10.50;100.00
58473;BME280;44775;51.564;5.460;2024-02-04T09:07:10;101992.06;;;10.44;100.00
58473;BME280;44775;51.564;5.460;2024-02-04T09:09:35;101996.00;;;10.59;100.00
58473;BME280;44775;51.564;5.460;2024-02-04T09:12:00;101998.56;;;10.61;100.00
58473;BME280;44775;51.564;5.460;2024-02-04T09:14:25;101992.09;;;10.63;100.00
58473;BME280;44775;51.564;5.460;2024-02-04T09:16:51;101995.16;;;10.69;100.00
58473;BME280;44775;51.564;5.460;2024-02-04T09:19:16;101993.91;;;10.73;100.00
58473;BME280;44775;51.564;5.460;2024-02-04T09:21:41;101985.75;;;10.74;100.00
58473;BME280;44775;51.564;5.460;2024-02-04T09:24:07;101990.53;;;10.71;100.00
58473;BME280;44775;51.564;5.460;2024-02-04T09:26:32;101987.69;;;10.82;100.00
58473;BME280;44775;51.564;5.460;2024-02-04T09:28:57;101984.03;;;10.83;100.00
58473;BME280;44775;51.564;5.460;2024-02-04T09:31:23;101982.50;;;10.80;100.00
58473;BME280;44775;51.564;5.460;2024-02-04T09:33:48;101977.13;;;11.00;100.00
58473;BME280;44775;51.564;5.460;2024-02-04T09:36:13;101979.25;;;10.86;100.00
58473;BME280;44775;51.564;5.460;2024-02-04T09:38:39;101985.75;;;10.94;100.00
58473;BME280;44775;51.564;5.460;2024-02-04T09:41:04;101983.75;;;10.76;100.00
58473;BME280;44775;51.564;5.460;2024-02-04T09:43:31;101979.41;;;10.85;100.00
58473;BME280;44775;51.564;5.460;2024-02-04T09:45:56;101985.88;;;10.82;100.00
58473;BME280;44775;51.564;5.460;2024-02-04T09:48:22;101976.59;;;10.67;100.00
58473;BME280;44775;51.564;5.460;2024-02-04T09:50:48;101968.16;;;10.72;100.00
58473;BME280;44775;51.564;5.460;2024-02-04T09:53:15;101967.88;;;10.55;100.00
58473;BME280;44775;51.564;5.460;2024-02-04T09:55:43;101970.56;;;10.65;100.00
58473;BME280;44775;51.564;5.460;2024-02-04T09:58:09;101967.47;;;10.50;100.00
58473;BME280;44775;51.564;5.460;2024-02-04T10:00:34;101971.81;;;10.42;100.00
58473;BME280;44775;51.564;5.460;2024-02-04T10:03:00;101976.31;;;10.41;100.00
58473;BME280;44775;51.564;5.460;2024-02-04T10:05:27;101971.81;;;10.51;100.00
58473;BME280;44775;51.564;5.460;2024-02-04T10:07:52;101979.72;;;10.43;100.00
58473;BME280;44775;51.564;5.460;2024-02-04T10:10:17;101987.13;;;10.49;100.00
58473;BME280;44775;51.564;5.460;2024-02-04T10:12:43;102001.34;;;10.59;100.00
58473;BME280;44775;51.564;5.460;2024-02-04T10:15:09;101990.13;;;10.46;100.00
58473;BME280;44775;51.564;5.460;2024-02-04T10:17:34;101982.50;;;10.42;100.00
58473;BME280;44775;51.564;5.460;2024-02-04T10:20:00;101979.69;;;10.33;100.00
58473;BME280;44775;51.564;5.460;2024-02-04T10:22:26;101992.91;;;10.45;100.00
58473;BME280;44775;51.564;5.460;2024-02-04T10:24:51;101985.19;;;10.42;100.00
58473;BME280;44775;51.564;5.460;2024-02-04T10:27:17;101971.97;;;10.40;100.00
58473;BME280;44775;51.564;5.460;2024-02-04T10:29:42;101975.88;;;10.36;100.00
58473;BME280;44775;51.564;5.460;2024-02-04T10:32:07;101984.91;;;10.54;100.00
58473;BME280;44775;51.564;5.460;2024-02-04T10:34:36;101980.94;;;10.39;100.00
58473;BME280;44775;51.564;5.460;2024-02-04T10:37:01;101989.25;;;10.65;100.00
58473;BME280;44775;51.564;5.460;2024-02-04T10:39:27;101977.28;;;10.59;100.00
58473;BME280;44775;51.564;5.460;2024-02-04T10:41:52;101978.44;;;10.57;100.00
58473;BME280;44775;51.564;5.460;2024-02-04T10:44:18;101980.41;;;10.55;100.00
58473;BME280;44775;51.564;5.460;2024-02-04T10:46:46;101981.22;;;10.46;100.00
58473;BME280;44775;51.564;5.460;2024-02-04T10:49:13;101983.06;;;10.45;100.00
58473;BME280;44775;51.564;5.460;2024-02-04T10:51:38;101986.59;;;10.55;100.00
58473;BME280;44775;51.564;5.460;2024-02-04T10:54:04;101985.91;;;10.44;100.00
58473;BME280;44775;51.564;5.460;2024-02-04T10:56:32;101977.31;;;10.30;100.00
58473;BME280;44775;51.564;5.460;2024-02-04T10:58:59;101973.22;;;10.36;100.00
58473;BME280;44775;51.564;5.460;2024-02-04T11:01:27;101971.41;;;10.27;100.00
58473;BME280;44775;51.564;5.460;2024-02-04T11:03:53;101964.78;;;10.40;100.00
58473;BME280;44775;51.564;5.460;2024-02-04T11:06:20;101969.72;;;10.45;100.00
58473;BME280;44775;51.564;5.460;2024-02-04T11:08:46;101971.97;;;10.40;100.00
58473;BME280;44775;51.564;5.460;2024-02-04T11:11:11;101969.69;;;10.26;100.00
58473;BME280;44775;51.564;5.460;2024-02-04T11:13:36;101970.56;;;10.26;100.00
58473;BME280;44775;51.564;5.460;2024-02-04T11:16:04;101969.28;;;10.30;100.00
58473;BME280;44775;51.564;5.460;2024-02-04T11:18:42;101958.34;;;10.43;100.00
58473;BME280;44775;51.564;5.460;2024-02-04T11:24:16;101950.31;;;10.43;100.00
58473;BME280;44775;51.564;5.460;2024-02-04T11:26:45;101943.97;;;10.34;100.00
58473;BME280;44775;51.564;5.460;2024-02-04T11:29:11;101950.88;;;10.37;100.00
58473;BME280;44775;51.564;5.460;2024-02-04T11:31:38;101948.03;;;10.48;100.00
58473;BME280;44775;51.564;5.460;2024-02-04T11:34:04;101953.38;;;10.29;100.00
58473;BME280;44775;51.564;5.460;2024-02-04T11:36:29;101953.94;;;10.42;100.00
58473;BME280;44775;51.564;5.460;2024-02-04T11:38:54;101952.72;;;10.46;100.00
58473;BME280;44775;51.564;5.460;2024-02-04T11:41:23;101947.91;;;10.40;100.00
58473;BME280;44775;51.564;5.460;2024-02-04T11:43:51;101943.81;;;10.36;100.00
58473;BME280;44775;51.564;5.460;2024-02-04T11:46:17;101944.41;;;10.39;100.00
58473;BME280;44775;51.564;5.460;2024-02-04T11:48:51;101940.31;;;10.35;100.00
58473;BME280;44775;51.564;5.460;2024-02-04T11:51:16;101930.22;;;10.29;100.00
58473;BME280;44775;51.564;5.460;2024-02-04T11:53:42;101930.91;;;10.51;100.00
58473;BME280;44775;51.564;5.460;2024-02-04T11:56:07;101927.78;;;10.36;100.00
58473;BME280;44775;51.564;5.460;2024-02-04T11:58:33;101931.88;;;10.40;100.00
58473;BME280;44775;51.564;5.460;2024-02-04T12:01:00;101929.06;;;10.51;100.00
58473;BME280;44775;51.564;5.460;2024-02-04T12:03:32;101925.69;;;10.30;100.00
58473;BME280;44775;51.564;5.460;2024-02-04T12:05:57;101922.72;;;10.43;100.00
58473;BME280;44775;51.564;5.460;2024-02-04T12:08:24;101916.81;;;10.39;100.00
58473;BME280;44775;51.564;5.460;2024-02-04T12:10:49;101921.03;;;10.71;100.00
58473;BME280;44775;51.564;5.460;2024-02-04T12:13:14;101919.47;;;10.78;100.00
58473;BME280;44775;51.564;5.460;2024-02-04T12:15:39;101907.94;;;10.77;100.00
58473;BME280;44775;51.564;5.460;2024-02-04T12:18:05;101923.00;;;10.69;100.00
58473;BME280;44775;51.564;5.460;2024-02-04T12:20:31;101915.25;;;10.66;100.00
58473;BME280;44775;51.564;5.460;2024-02-04T12:22:56;101917.25;;;10.63;100.00
58473;BME280;44775;51.564;5.460;2024-02-04T12:25:21;101913.56;;;10.74;100.00
58473;BME280;44775;51.564;5.460;2024-02-04T12:27:47;101910.75;;;10.66;100.00
58473;BME280;44775;51.564;5.460;2024-02-04T12:30:13;101921.31;;;10.68;100.00
58473;BME280;44775;51.564;5.460;2024-02-04T12:32:39;101917.72;;;10.96;100.00
58473;BME280;44775;51.564;5.460;2024-02-04T12:35:05;101909.03;;;10.94;100.00
58473;BME280;44775;51.564;5.460;2024-02-04T12:37:30;101894.75;;;11.03;100.00
58473;BME280;44775;51.564;5.460;2024-02-04T12:39:55;101907.91;;;10.87;100.00
58473;BME280;44775;51.564;5.460;2024-02-04T12:42:21;101908.59;;;10.89;100.00
58473;BME280;44775;51.564;5.460;2024-02-04T12:44:47;101908.31;;;10.82;100.00